sensor_id;sensor_type;location;lat;lon;timestamp;temperature;humidity
21622;DHT22;10973;46.706;12.340;2023-06-22T08:14:58;21.90;99.90
21622;DHT22;10973;46.706;12.340;2023-06-22T08:17:26;21.90;99.90
21622;DHT22;10973;46.706;12.340;2023-06-22T08:19:54;22.00;99.90
21622;DHT22;10973;46.706;12.340;2023-06-22T08:22:22;22.00;99.90
21622;DHT22;10973;46.706;12.340;2023-06-22T08:24:49;22.00;99.90
21622;DHT22;10973;46.706;12.340;2023-06-22T08:27:17;22.00;99.90
21622;DHT22;10973;46.706;12.340;2023-06-22T08:29:45;22.00;99.90
21622;DHT22;10973;46.706;12.340;2023-06-22T08:32:12;22.10;99.90
21622;DHT22;10973;46.706;12.340;2023-06-22T08:34:40;22.10;99.90
21622;DHT22;10973;46.706;12.340;2023-06-22T08:37:10;22.20;99.90
21622;DHT22;10973;46.706;12.340;2023-06-22T08:39:38;22.30;99.90
21622;DHT22;10973;46.706;12.340;2023-06-22T08:42:06;22.40;99.90
21622;DHT22;10973;46.706;12.340;2023-06-22T08:44:34;22.50;99.90
21622;DHT22;10973;46.706;12.340;2023-06-22T08:47:01;22.50;99.90
21622;DHT22;10973;46.706;12.340;2023-06-22T08:49:29;22.60;99.90
21622;DHT22;10973;46.706;12.340;2023-06-22T08:51:57;22.60;99.90
21622;DHT22;10973;46.706;12.340;2023-06-22T08:54:24;22.80;99.90
21622;DHT22;10973;46.706;12.340;2023-06-22T08:56:51;22.90;99.90
21622;DHT22;10973;46.706;12.340;2023-06-22T08:59:19;23.00;99.90
21622;DHT22;10973;46.706;12.340;2023-06-22T09:01:46;23.20;99.90
21622;DHT22;10973;46.706;12.340;2023-06-22T09:04:14;23.20;99.90
21622;DHT22;10973;46.706;12.340;2023-06-22T09:06:42;23.30;99.90
21622;DHT22;10973;46.706;12.340;2023-06-22T09:09:10;23.40;99.90
21622;DHT22;10973;46.706;12.340;2023-06-22T09:11:39;23.50;99.90
21622;DHT22;10973;46.706;12.340;2023-06-22T09:14:06;23.50;99.90
21622;DHT22;10973;46.706;12.340;2023-06-22T09:16:34;23.70;99.90
21622;DHT22;10973;46.706;12.340;2023-06-22T09:19:02;23.60;99.90
21622;DHT22;10973;46.706;12.340;2023-06-22T09:21:30;23.70;99.90
21622;DHT22;10973;46.706;12.340;2023-06-22T09:24:00;23.80;99.90
21622;DHT22;10973;46.706;12.340;2023-06-22T09:26:27;23.90;99.90
21622;DHT22;10973;46.706;12.340;2023-06-22T09:28:55;23.90;99.90
21622;DHT22;10973;46.706;12.340;2023-06-22T09:31:22;24.00;99.90
21622;DHT22;10973;46.706;12.340;2023-06-22T09:33:54;24.00;99.90
21622;DHT22;10973;46.706;12.340;2023-06-22T09:36:21;24.10;99.90
21622;DHT22;10973;46.706;12.340;2023-06-22T09:38:49;24.30;99.90
21622;DHT22;10973;46.706;12.340;2023-06-22T09:41:17;24.30;99.90
21622;DHT22;10973;46.706;12.340;2023-06-22T09:43:44;24.40;99.90
21622;DHT22;10973;46.706;12.340;2023-06-22T09:46:12;24.50;99.90
21622;DHT22;10973;46.706;12.340;2023-06-22T09:48:39;24.50;99.90
21622;DHT22;10973;46.706;12.340;2023-06-22T09:51:07;24.60;99.90
21622;DHT22;10973;46.706;12.340;2023-06-22T09:53:35;24.70;99.90
21622;DHT22;10973;46.706;12.340;2023-06-22T09:56:02;24.80;99.90
21622;DHT22;10973;46.706;12.340;2023-06-22T09:58:30;24.80;99.90
21622;DHT22;10973;46.706;12.340;2023-06-22T10:01:01;24.80;99.90
21622;DHT22;10973;46.706;12.340;2023-06-22T10:03:29;24.80;99.90
21622;DHT22;10973;46.706;12.340;2023-06-22T10:05:57;24.90;99.60
21622;DHT22;10973;46.706;12.340;2023-06-22T10:08:25;25.00;99.20
21622;DHT22;10973;46.706;12.340;2023-06-22T10:10:52;25.10;99.90
21622;DHT22;10973;46.706;12.340;2023-06-22T10:13:20;25.20;99.80
21622;DHT22;10973;46.706;12.340;2023-06-22T10:15:47;25.20;99.80
21622;DHT22;10973;46.706;12.340;2023-06-22T10:18:15;25.20;99.70
21622;DHT22;10973;46.706;12.340;2023-06-22T10:20:48;25.30;99.20
21622;DHT22;10973;46.706;12.340;2023-06-22T10:23:19;25.40;98.40
21622;DHT22;10973;46.706;12.340;2023-06-22T10:25:47;25.40;98.10
21622;DHT22;10973;46.706;12.340;2023-06-22T10:28:15;25.40;98.70
21622;DHT22;10973;46.706;12.340;2023-06-22T10:30:43;25.50;98.30
21622;DHT22;10973;46.706;12.340;2023-06-22T10:33:11;25.60;97.80
21622;DHT22;10973;46.706;12.340;2023-06-22T10:35:39;25.50;97.30
21622;DHT22;10973;46.706;12.340;2023-06-22T10:38:07;25.60;96.50
21622;DHT22;10973;46.706;12.340;2023-06-22T10:40:37;25.70;95.30
21622;DHT22;10973;46.706;12.340;2023-06-22T10:43:08;25.70;95.20
21622;DHT22;10973;46.706;12.340;2023-06-22T10:45:39;25.80;95.70
21622;DHT22;10973;46.706;12.340;2023-06-22T10:48:06;25.90;95.60
21622;DHT22;10973;46.706;12.340;2023-06-22T10:50:34;25.80;94.20
21622;DHT22;10973;46.706;12.340;2023-06-22T10:53:02;26.00;95.10
21622;DHT22;10973;46.706;12.340;2023-06-22T10:55:29;26.00;93.80
21622;DHT22;10973;46.706;12.340;2023-06-22T10:58:18;26.20;94.30
21622;DHT22;10973;46.706;12.340;2023-06-22T11:00:46;26.20;92.70
21622;DHT22;10973;46.706;12.340;2023-06-22T11:03:13;26.20;93.10
21622;DHT22;10973;46.706;12.340;2023-06-22T11:05:41;26.30;91.40
21622;DHT22;10973;46.706;12.340;2023-06-22T11:08:08;26.40;91.90
21622;DHT22;10973;46.706;12.340;2023-06-22T11:10:35;26.60;90.00
21622;DHT22;10973;46.706;12.340;2023-06-22T11:13:03;26.70;90.00
21622;DHT22;10973;46.706;12.340;2023-06-22T11:15:31;26.80;92.70
21622;DHT22;10973;46.706;12.340;2023-06-22T11:17:58;27.00;91.10
21622;DHT22;10973;46.706;12.340;2023-06-22T11:20:26;27.00;90.70
21622;DHT22;10973;46.706;12.340;2023-06-22T11:22:54;27.20;91.90
21622;DHT22;10973;46.706;12.340;2023-06-22T11:25:21;27.40;90.30
21622;DHT22;10973;46.706;12.340;2023-06-22T11:27:48;27.40;90.10
21622;DHT22;10973;46.706;12.340;2023-06-22T11:30:16;27.40;89.20
21622;DHT22;10973;46.706;12.340;2023-06-22T11:32:44;27.50;90.20
21622;DHT22;10973;46.706;12.340;2023-06-22T11:35:12;27.60;90.20
21622;DHT22;10973;46.706;12.340;2023-06-22T11:37:39;27.80;90.80
21622;DHT22;10973;46.706;12.340;2023-06-22T11:40:08;28.00;90.70
21622;DHT22;10973;46.706;12.340;2023-06-22T11:42:36;28.20;91.40
21622;DHT22;10973;46.706;12.340;2023-06-22T11:45:05;28.30;91.20
21622;DHT22;10973;46.706;12.340;2023-06-22T11:47:33;28.30;90.60
21622;DHT22;10973;46.706;12.340;2023-06-22T11:50:01;28.10;89.80
21622;DHT22;10973;46.706;12.340;2023-06-22T11:52:29;28.30;90.30
21622;DHT22;10973;46.706;12.340;2023-06-22T11:54:56;28.50;91.40
21622;DHT22;10973;46.706;12.340;2023-06-22T11:57:24;28.80;90.70
21622;DHT22;10973;46.706;12.340;2023-06-22T11:59:51;28.70;90.00
21622;DHT22;10973;46.706;12.340;2023-06-22T12:02:18;28.70;89.70
21622;DHT22;10973;46.706;12.340;2023-06-22T12:04:46;28.80;90.20
21622;DHT22;10973;46.706;12.340;2023-06-22T12:07:13;28.80;89.80
21622;DHT22;10973;46.706;12.340;2023-06-22T12:09:40;28.90;89.50
21622;DHT22;10973;46.706;12.340;2023-06-22T12:12:08;29.00;88.20
21622;DHT22;10973;46.706;12.340;2023-06-22T12:14:36;28.90;86.80
21622;DHT22;10973;46.706;12.340;2023-06-22T12:17:04;28.70;86.90
21622;DHT22;10973;46.706;12.340;2023-06-22T12:19:31;28.70;88.70
21622;DHT22;10973;46.706;12.340;2023-06-22T12:21:59;28.90;87.80
21622;DHT22;10973;46.706;12.340;2023-06-22T12:24:26;29.00;86.90
21622;DHT22;10973;46.706;12.340;2023-06-22T12:26:54;29.00;88.00
21622;DHT22;10973;46.706;12.340;2023-06-22T12:29:22;28.80;86.40
21622;DHT22;10973;46.706;12.340;2023-06-22T12:31:49;29.00;86.70
21622;DHT22;10973;46.706;12.340;2023-06-22T12:34:17;29.10;87.40
21622;DHT22;10973;46.706;12.340;2023-06-22T12:36:44;28.90;86.70
21622;DHT22;10973;46.706;12.340;2023-06-22T12:39:12;28.80;87.20
21622;DHT22;10973;46.706;12.340;2023-06-22T12:41:39;28.60;85.80
21622;DHT22;10973;46.706;12.340;2023-06-22T12:44:06;28.60;87.90
21622;DHT22;10973;46.706;12.340;2023-06-22T12:46:34;28.60;88.60
21622;DHT22;10973;46.706;12.340;2023-06-22T12:49:02;28.40;84.50
21622;DHT22;10973;46.706;12.340;2023-06-22T12:51:29;28.30;86.30
21622;DHT22;10973;46.706;12.340;2023-06-22T12:53:57;28.10;86.20
21622;DHT22;10973;46.706;12.340;2023-06-22T12:56:25;28.00;87.10
21622;DHT22;10973;46.706;12.340;2023-06-22T12:58:52;28.00;87.10
21622;DHT22;10973;46.706;12.340;2023-06-22T13:01:20;27.90;87.40
21622;DHT22;10973;46.706;12.340;2023-06-22T13:03:47;28.10;84.10
21622;DHT22;10973;46.706;12.340;2023-06-22T13:06:15;28.40;84.50
21622;DHT22;10973;46.706;12.340;2023-06-22T13:08:42;28.30;85.10
21622;DHT22;10973;46.706;12.340;2023-06-22T13:11:30;28.40;85.30
21622;DHT22;10973;46.706;12.340;2023-06-22T13:13:57;28.40;84.60
21622;DHT22;10973;46.706;12.340;2023-06-22T13:16:24;28.70;86.70
21622;DHT22;10973;46.706;12.340;2023-06-22T13:18:52;28.90;87.00
21622;DHT22;10973;46.706;12.340;2023-06-22T13:21:19;29.10;85.10
21622;DHT22;10973;46.706;12.340;2023-06-22T13:23:47;29.20;82.70
21622;DHT22;10973;46.706;12.340;2023-06-22T13:26:14;29.50;86.80
21622;DHT22;10973;46.706;12.340;2023-06-22T13:28:42;29.50;84.60
21622;DHT22;10973;46.706;12.340;2023-06-22T13:31:09;29.20;84.60
21622;DHT22;10973;46.706;12.340;2023-06-22T13:33:38;29.30;83.90
21622;DHT22;10973;46.706;12.340;2023-06-22T13:36:05;29.30;85.20
21622;DHT22;10973;46.706;12.340;2023-06-22T13:38:35;29.00;86.00
21622;DHT22;10973;46.706;12.340;2023-06-22T13:41:03;28.80;86.10
21622;DHT22;10973;46.706;12.340;2023-06-22T13:43:31;28.90;86.10
21622;DHT22;10973;46.706;12.340;2023-06-22T13:45:58;28.80;86.90
21622;DHT22;10973;46.706;12.340;2023-06-22T13:48:26;29.00;86.70
21622;DHT22;10973;46.706;12.340;2023-06-22T13:50:53;28.90;86.40
21622;DHT22;10973;46.706;12.340;2023-06-22T13:53:21;28.90;86.70
21622;DHT22;10973;46.706;12.340;2023-06-22T13:55:48;28.90;86.90
21622;DHT22;10973;46.706;12.340;2023-06-22T13:58:16;28.60;86.80
21622;DHT22;10973;46.706;12.340;2023-06-22T14:00:43;28.40;87.80
21622;DHT22;10973;46.706;12.340;2023-06-22T14:03:14;28.40;87.30
21622;DHT22;10973;46.706;12.340;2023-06-22T14:05:43;28.70;88.30
21622;DHT22;10973;46.706;12.340;2023-06-22T14:08:14;28.40;88.40
21622;DHT22;10973;46.706;12.340;2023-06-22T14:11:06;28.20;89.60
21622;DHT22;10973;46.706;12.340;2023-06-22T14:13:34;28.00;90.20
21622;DHT22;10973;46.706;12.340;2023-06-22T14:16:02;28.30;89.60
21622;DHT22;10973;46.706;12.340;2023-06-22T14:18:30;28.30;89.70
21622;DHT22;10973;46.706;12.340;2023-06-22T14:20:57;28.10;90.10
21622;DHT22;10973;46.706;12.340;2023-06-22T14:23:25;28.10;90.00
21622;DHT22;10973;46.706;12.340;2023-06-22T14:25:54;28.40;89.40
21622;DHT22;10973;46.706;12.340;2023-06-22T14:28:21;28.30;89.10
21622;DHT22;10973;46.706;12.340;2023-06-22T14:30:51;28.20;89.30
21622;DHT22;10973;46.706;12.340;2023-06-22T14:33:18;28.00;88.80
21622;DHT22;10973;46.706;12.340;2023-06-22T14:35:49;27.70;88.60
21622;DHT22;10973;46.706;12.340;2023-06-22T14:38:21;27.50;89.10
21622;DHT22;10973;46.706;12.340;2023-06-22T14:40:48;27.40;88.80
21622;DHT22;10973;46.706;12.340;2023-06-22T14:43:36;27.50;88.90
21622;DHT22;10973;46.706;12.340;2023-06-22T14:46:03;27.50;88.50
21622;DHT22;10973;46.706;12.340;2023-06-22T14:48:30;27.90;89.10
21622;DHT22;10973;46.706;12.340;2023-06-22T14:50:58;28.20;88.70
21622;DHT22;10973;46.706;12.340;2023-06-22T14:53:25;28.60;88.00
21622;DHT22;10973;46.706;12.340;2023-06-22T14:55:53;28.80;87.50
21622;DHT22;10973;46.706;12.340;2023-06-22T14:58:21;28.90;86.80
21622;DHT22;10973;46.706;12.340;2023-06-22T15:00:48;29.10;85.90
21622;DHT22;10973;46.706;12.340;2023-06-22T15:03:16;29.00;85.40
21622;DHT22;10973;46.706;12.340;2023-06-22T15:05:45;29.20;85.20
21622;DHT22;10973;46.706;12.340;2023-06-22T15:08:13;29.40;84.30
21622;DHT22;10973;46.706;12.340;2023-06-22T15:10:40;29.70;84.70
21622;DHT22;10973;46.706;12.340;2023-06-22T15:13:08;29.90;84.20
21622;DHT22;10973;46.706;12.340;2023-06-22T15:15:36;30.00;84.00
21622;DHT22;10973;46.706;12.340;2023-06-22T15:18:03;29.60;83.90
21622;DHT22;10973;46.706;12.340;2023-06-22T15:20:31;29.30;82.30
21622;DHT22;10973;46.706;12.340;2023-06-22T15:22:59;29.30;83.60
21622;DHT22;10973;46.706;12.340;2023-06-22T15:25:26;29.00;83.50
21622;DHT22;10973;46.706;12.340;2023-06-22T15:27:54;28.80;85.20
21622;DHT22;10973;46.706;12.340;2023-06-22T15:30:21;28.90;83.80
21622;DHT22;10973;46.706;12.340;2023-06-22T15:32:49;28.80;83.30
21622;DHT22;10973;46.706;12.340;2023-06-22T15:35:16;29.10;83.30
21622;DHT22;10973;46.706;12.340;2023-06-22T15:37:44;29.20;83.20
21622;DHT22;10973;46.706;12.340;2023-06-22T15:40:12;29.10;79.70
21622;DHT22;10973;46.706;12.340;2023-06-22T15:42:39;29.20;82.70
21622;DHT22;10973;46.706;12.340;2023-06-22T15:45:07;29.30;80.40
21622;DHT22;10973;46.706;12.340;2023-06-22T15:47:38;29.50;81.20
21622;DHT22;10973;46.706;12.340;2023-06-22T15:50:06;29.50;82.40
21622;DHT22;10973;46.706;12.340;2023-06-22T15:52:33;29.40;83.40
21622;DHT22;10973;46.706;12.340;2023-06-22T15:55:01;29.30;84.80
21622;DHT22;10973;46.706;12.340;2023-06-22T15:57:28;29.20;85.00
21622;DHT22;10973;46.706;12.340;2023-06-22T16:00:00;29.30;84.70
21622;DHT22;10973;46.706;12.340;2023-06-22T16:02:28;29.20;84.60
21622;DHT22;10973;46.706;12.340;2023-06-22T16:04:55;28.90;85.00
21622;DHT22;10973;46.706;12.340;2023-06-22T16:07:23;28.80;86.30
21622;DHT22;10973;46.706;12.340;2023-06-22T16:09:51;28.80;86.60
21622;DHT22;10973;46.706;12.340;2023-06-22T16:12:19;28.90;86.70
21622;DHT22;10973;46.706;12.340;2023-06-22T16:14:49;28.70;87.70
21622;DHT22;10973;46.706;12.340;2023-06-22T16:17:17;28.70;87.30
21622;DHT22;10973;46.706;12.340;2023-06-22T16:19:44;28.50;87.20
21622;DHT22;10973;46.706;12.340;2023-06-22T16:22:12;28.30;88.40
21622;DHT22;10973;46.706;12.340;2023-06-22T16:24:39;28.10;89.10
21622;DHT22;10973;46.706;12.340;2023-06-22T16:27:07;28.00;90.00
21622;DHT22;10973;46.706;12.340;2023-06-22T16:29:34;27.80;90.20
21622;DHT22;10973;46.706;12.340;2023-06-22T16:32:02;27.80;90.00
21622;DHT22;10973;46.706;12.340;2023-06-22T16:34:29;27.70;90.20
21622;DHT22;10973;46.706;12.340;2023-06-22T16:36:57;27.70;90.30
21622;DHT22;10973;46.706;12.340;2023-06-22T16:39:24;27.80;90.70
21622;DHT22;10973;46.706;12.340;2023-06-22T16:41:52;27.70;90.40
21622;DHT22;10973;46.706;12.340;2023-06-22T16:44:20;27.70;90.60
21622;DHT22;10973;46.706;12.340;2023-06-22T16:46:47;27.50;91.20
21622;DHT22;10973;46.706;12.340;2023-06-22T16:49:14;27.40;91.30
21622;DHT22;10973;46.706;12.340;2023-06-22T16:51:42;27.30;91.50
21622;DHT22;10973;46.706;12.340;2023-06-22T16:54:10;27.30;91.60
21622;DHT22;10973;46.706;12.340;2023-06-22T16:56:39;27.30;92.20
21622;DHT22;10973;46.706;12.340;2023-06-22T16:59:06;27.10;91.80
21622;DHT22;10973;46.706;12.340;2023-06-22T17:01:34;27.00;92.00
21622;DHT22;10973;46.706;12.340;2023-06-22T17:04:09;27.00;92.20
21622;DHT22;10973;46.706;12.340;2023-06-22T17:06:41;26.90;92.40
21622;DHT22;10973;46.706;12.340;2023-06-22T17:09:11;26.80;92.60
21622;DHT22;10973;46.706;12.340;2023-06-22T17:11:41;26.70;93.10
21622;DHT22;10973;46.706;12.340;2023-06-22T17:14:10;26.40;93.00
21622;DHT22;10973;46.706;12.340;2023-06-22T17:16:42;26.40;93.70
21622;DHT22;10973;46.706;12.340;2023-06-22T17:19:12;26.30;93.80
21622;DHT22;10973;46.706;12.340;2023-06-22T17:21:40;26.20;94.10
21622;DHT22;10973;46.706;12.340;2023-06-22T17:24:09;26.10;94.20
21622;DHT22;10973;46.706;12.340;2023-06-22T17:26:39;26.10;94.40
21622;DHT22;10973;46.706;12.340;2023-06-22T17:29:08;26.00;94.20
21622;DHT22;10973;46.706;12.340;2023-06-22T17:31:39;26.00;94.30
21622;DHT22;10973;46.706;12.340;2023-06-22T17:34:11;25.90;94.30
21622;DHT22;10973;46.706;12.340;2023-06-22T17:36:51;25.90;94.00
21622;DHT22;10973;46.706;12.340;2023-06-22T17:39:20;25.70;94.90
21622;DHT22;10973;46.706;12.340;2023-06-22T17:41:50;25.60;95.00
21622;DHT22;10973;46.706;12.340;2023-06-22T17:44:24;25.60;95.20
21622;DHT22;10973;46.706;12.340;2023-06-22T17:46:58;25.60;95.10
21622;DHT22;10973;46.706;12.340;2023-06-22T17:49:30;25.60;95.30
21622;DHT22;10973;46.706;12.340;2023-06-22T17:51:58;25.50;95.20
21622;DHT22;10973;46.706;12.340;2023-06-22T17:54:32;25.40;95.50
21622;DHT22;10973;46.706;12.340;2023-06-22T17:57:14;25.30;95.80
21622;DHT22;10973;46.706;12.340;2023-06-22T17:59:50;25.30;96.10
21622;DHT22;10973;46.706;12.340;2023-06-22T18:02:23;25.40;95.60
21622;DHT22;10973;46.706;12.340;2023-06-22T18:04:56;25.30;95.90
21622;DHT22;10973;46.706;12.340;2023-06-22T18:07:26;25.20;96.20
21622;DHT22;10973;46.706;12.340;2023-06-22T18:09:57;25.10;96.00
21622;DHT22;10973;46.706;12.340;2023-06-22T18:12:26;25.10;96.10
21622;DHT22;10973;46.706;12.340;2023-06-22T18:14:55;25.10;96.40
21622;DHT22;10973;46.706;12.340;2023-06-22T18:17:24;25.00;96.60
21622;DHT22;10973;46.706;12.340;2023-06-22T18:19:55;25.00;96.50
21622;DHT22;10973;46.706;12.340;2023-06-22T18:22:24;25.00;96.60
21622;DHT22;10973;46.706;12.340;2023-06-22T18:24:52;24.90;96.70
21622;DHT22;10973;46.706;12.340;2023-06-22T18:27:22;24.80;97.10
21622;DHT22;10973;46.706;12.340;2023-06-22T18:29:54;24.70;97.50
21622;DHT22;10973;46.706;12.340;2023-06-22T18:32:22;24.70;97.50
21622;DHT22;10973;46.706;12.340;2023-06-22T18:34:50;24.60;97.40
21622;DHT22;10973;46.706;12.340;2023-06-22T18:37:19;24.40;97.90
21622;DHT22;10973;46.706;12.340;2023-06-22T18:39:52;24.40;98.00
21622;DHT22;10973;46.706;12.340;2023-06-22T18:42:21;24.40;98.30
21622;DHT22;10973;46.706;12.340;2023-06-22T18:44:53;24.30;98.30
21622;DHT22;10973;46.706;12.340;2023-06-22T18:47:29;24.20;98.40
21622;DHT22;10973;46.706;12.340;2023-06-22T18:50:06;24.20;98.60
21622;DHT22;10973;46.706;12.340;2023-06-22T18:52:36;24.10;98.80
21622;DHT22;10973;46.706;12.340;2023-06-22T18:55:06;24.00;99.10
21622;DHT22;10973;46.706;12.340;2023-06-22T18:57:39;23.90;99.40
21622;DHT22;10973;46.706;12.340;2023-06-22T19:00:07;23.90;99.50
21622;DHT22;10973;46.706;12.340;2023-06-22T19:02:47;23.90;99.70
21622;DHT22;10973;46.706;12.340;2023-06-22T19:05:40;23.90;99.90
21622;DHT22;10973;46.706;12.340;2023-06-22T19:08:10;23.90;99.90
21622;DHT22;10973;46.706;12.340;2023-06-22T19:10:42;23.90;99.90
21622;DHT22;10973;46.706;12.340;2023-06-22T19:15:44;23.70;99.90
21622;DHT22;10973;46.706;12.340;2023-06-22T19:21:12;23.60;99.90
21622;DHT22;10973;46.706;12.340;2023-06-22T19:23:47;23.60;99.90
21622;DHT22;10973;46.706;12.340;2023-06-22T19:26:16;23.60;99.90
21622;DHT22;10973;46.706;12.340;2023-06-22T19:28:53;23.60;99.90
21622;DHT22;10973;46.706;12.340;2023-06-22T19:31:23;23.50;99.90
21622;DHT22;10973;46.706;12.340;2023-06-22T19:34:02;23.50;99.90
21622;DHT22;10973;46.706;12.340;2023-06-22T19:36:33;23.50;99.90
21622;DHT22;10973;46.706;12.340;2023-06-22T19:39:02;23.40;99.90
21622;DHT22;10973;46.706;12.340;2023-06-22T19:41:31;23.30;99.90
21622;DHT22;10973;46.706;12.340;2023-06-22T19:43:59;23.20;99.90
21622;DHT22;10973;46.706;12.340;2023-06-22T19:46:28;23.20;99.90
21622;DHT22;10973;46.706;12.340;2023-06-22T19:48:57;23.30;99.90
21622;DHT22;10973;46.706;12.340;2023-06-22T19:51:34;23.20;99.90
21622;DHT22;10973;46.706;12.340;2023-06-22T19:54:09;23.30;99.90
21622;DHT22;10973;46.706;12.340;2023-06-22T19:56:37;23.20;99.90
21622;DHT22;10973;46.706;12.340;2023-06-22T19:59:11;23.10;99.90
21622;DHT22;10973;46.706;12.340;2023-06-22T20:01:39;23.10;99.90
21622;DHT22;10973;46.706;12.340;2023-06-22T20:04:08;23.00;99.90
21622;DHT22;10973;46.706;12.340;2023-06-22T20:06:37;23.00;99.90
21622;DHT22;10973;46.706;12.340;2023-06-22T20:09:05;23.10;99.90
21622;DHT22;10973;46.706;12.340;2023-06-22T20:11:34;22.90;99.90
21622;DHT22;10973;46.706;12.340;2023-06-22T20:14:02;22.90;99.90
21622;DHT22;10973;46.706;12.340;2023-06-22T20:16:30;22.90;99.90
21622;DHT22;10973;46.706;12.340;2023-06-22T20:19:07;22.90;99.90
21622;DHT22;10973;46.706;12.340;2023-06-22T20:21:38;22.80;99.90
21622;DHT22;10973;46.706;12.340;2023-06-22T20:24:09;22.80;99.90
21622;DHT22;10973;46.706;12.340;2023-06-22T20:26:42;22.80;99.90
21622;DHT22;10973;46.706;12.340;2023-06-22T20:29:27;22.80;99.90
21622;DHT22;10973;46.706;12.340;2023-06-22T20:34:45;22.70;99.90
21622;DHT22;10973;46.706;12.340;2023-06-22T20:37:15;22.70;99.90
21622;DHT22;10973;46.706;12.340;2023-06-22T20:39:44;22.60;99.90
21622;DHT22;10973;46.706;12.340;2023-06-22T20:42:15;22.60;99.90
21622;DHT22;10973;46.706;12.340;2023-06-22T20:44:42;22.60;99.90
21622;DHT22;10973;46.706;12.340;2023-06-22T20:47:10;22.50;99.90
21622;DHT22;10973;46.706;12.340;2023-06-22T20:49:37;22.50;99.90
21622;DHT22;10973;46.706;12.340;2023-06-22T20:52:05;22.50;99.90
21622;DHT22;10973;46.706;12.340;2023-06-22T20:54:34;22.40;99.90
21622;DHT22;10973;46.706;12.340;2023-06-22T20:57:01;22.40;99.90
21622;DHT22;10973;46.706;12.340;2023-06-22T20:59:28;22.40;99.90
21622;DHT22;10973;46.706;12.340;2023-06-22T21:01:57;22.40;99.90
21622;DHT22;10973;46.706;12.340;2023-06-22T21:04:24;22.40;99.90
21622;DHT22;10973;46.706;12.340;2023-06-22T21:06:52;22.40;99.90
21622;DHT22;10973;46.706;12.340;2023-06-22T21:09:19;22.40;99.90
21622;DHT22;10973;46.706;12.340;2023-06-22T21:11:47;22.30;99.90
21622;DHT22;10973;46.706;12.340;2023-06-22T21:14:14;22.20;99.90
21622;DHT22;10973;46.706;12.340;2023-06-22T21:16:47;22.10;99.90
21622;DHT22;10973;46.706;12.340;2023-06-22T21:19:14;22.20;99.90
21622;DHT22;10973;46.706;12.340;2023-06-22T21:21:42;22.10;99.90
21622;DHT22;10973;46.706;12.340;2023-06-22T21:24:13;22.00;99.90
21622;DHT22;10973;46.706;12.340;2023-06-22T21:26:40;22.00;99.90
21622;DHT22;10973;46.706;12.340;2023-06-22T21:29:08;21.90;99.90
21622;DHT22;10973;46.706;12.340;2023-06-22T21:31:35;22.00;99.90
21622;DHT22;10973;46.706;12.340;2023-06-22T21:34:03;21.90;99.90
21622;DHT22;10973;46.706;12.340;2023-06-22T21:36:30;21.90;99.90
21622;DHT22;10973;46.706;12.340;2023-06-22T21:38:58;21.90;99.90
21622;DHT22;10973;46.706;12.340;2023-06-22T21:41:25;21.90;99.90
21622;DHT22;10973;46.706;12.340;2023-06-22T21:43:52;21.90;99.90
21622;DHT22;10973;46.706;12.340;2023-06-22T21:46:20;21.80;99.90
21622;DHT22;10973;46.706;12.340;2023-06-22T21:48:48;21.90;99.90
21622;DHT22;10973;46.706;12.340;2023-06-22T21:51:16;21.80;99.90
21622;DHT22;10973;46.706;12.340;2023-06-22T21:53:43;21.80;99.90
21622;DHT22;10973;46.706;12.340;2023-06-22T21:56:11;21.80;99.90
21622;DHT22;10973;46.706;12.340;2023-06-22T21:58:38;21.70;99.90
21622;DHT22;10973;46.706;12.340;2023-06-22T22:01:06;21.60;99.90
21622;DHT22;10973;46.706;12.340;2023-06-22T22:03:33;21.60;99.90
21622;DHT22;10973;46.706;12.340;2023-06-22T22:06:00;21.60;99.90
21622;DHT22;10973;46.706;12.340;2023-06-22T22:08:28;21.60;99.90
21622;DHT22;10973;46.706;12.340;2023-06-22T22:10:55;21.60;99.90
21622;DHT22;10973;46.706;12.340;2023-06-22T22:13:23;21.50;99.90
21622;DHT22;10973;46.706;12.340;2023-06-22T22:15:50;21.50;99.90
21622;DHT22;10973;46.706;12.340;2023-06-22T22:18:18;21.50;99.90
21622;DHT22;10973;46.706;12.340;2023-06-22T22:20:45;21.50;99.90
21622;DHT22;10973;46.706;12.340;2023-06-22T22:23:12;21.50;99.90
21622;DHT22;10973;46.706;12.340;2023-06-22T22:25:40;21.40;99.90
21622;DHT22;10973;46.706;12.340;2023-06-22T22:28:07;21.40;99.90
21622;DHT22;10973;46.706;12.340;2023-06-22T22:30:34;21.40;99.90
21622;DHT22;10973;46.706;12.340;2023-06-22T22:33:02;21.40;99.90
21622;DHT22;10973;46.706;12.340;2023-06-22T22:35:30;21.30;99.90
21622;DHT22;10973;46.706;12.340;2023-06-22T22:37:58;21.40;99.90
21622;DHT22;10973;46.706;12.340;2023-06-22T22:40:25;21.30;99.90
21622;DHT22;10973;46.706;12.340;2023-06-22T22:42:52;21.30;99.90
21622;DHT22;10973;46.706;12.340;2023-06-22T22:45:20;21.30;99.90
21622;DHT22;10973;46.706;12.340;2023-06-22T22:47:48;21.30;99.90
21622;DHT22;10973;46.706;12.340;2023-06-22T22:50:15;21.30;99.90
21622;DHT22;10973;46.706;12.340;2023-06-22T22:52:43;21.30;99.90
21622;DHT22;10973;46.706;12.340;2023-06-22T22:55:10;21.30;99.90
21622;DHT22;10973;46.706;12.340;2023-06-22T22:57:37;21.30;99.90
21622;DHT22;10973;46.706;12.340;2023-06-22T23:00:06;21.30;99.90
21622;DHT22;10973;46.706;12.340;2023-06-22T23:02:34;21.30;99.90
21622;DHT22;10973;46.706;12.340;2023-06-22T23:05:03;21.30;99.90
21622;DHT22;10973;46.706;12.340;2023-06-22T23:07:30;21.30;99.90
21622;DHT22;10973;46.706;12.340;2023-06-22T23:09:58;21.20;99.90
21622;DHT22;10973;46.706;12.340;2023-06-22T23:12:26;21.10;99.90
21622;DHT22;10973;46.706;12.340;2023-06-22T23:14:53;21.20;99.90
21622;DHT22;10973;46.706;12.340;2023-06-22T23:17:21;21.20;99.90
21622;DHT22;10973;46.706;12.340;2023-06-22T23:19:49;21.10;99.90
21622;DHT22;10973;46.706;12.340;2023-06-22T23:22:17;21.20;99.90
21622;DHT22;10973;46.706;12.340;2023-06-22T23:24:45;21.10;99.90
21622;DHT22;10973;46.706;12.340;2023-06-22T23:27:13;21.10;99.90
21622;DHT22;10973;46.706;12.340;2023-06-22T23:29:41;21.10;99.90
21622;DHT22;10973;46.706;12.340;2023-06-22T23:32:09;21.20;99.90
21622;DHT22;10973;46.706;12.340;2023-06-22T23:34:36;21.10;99.90
21622;DHT22;10973;46.706;12.340;2023-06-22T23:37:04;21.10;99.90
21622;DHT22;10973;46.706;12.340;2023-06-22T23:39:31;21.00;99.90
21622;DHT22;10973;46.706;12.340;2023-06-22T23:41:58;21.00;99.90
21622;DHT22;10973;46.706;12.340;2023-06-22T23:44:26;21.00;99.90
21622;DHT22;10973;46.706;12.340;2023-06-22T23:46:53;20.90;99.90